Terminal Aerodrome Forecast
Issued by NWS

Home | Current Version | Previous Version | Text Only | Print | Product List | Glossary On
Versions: 1 2 3 4 5 6 7 8 9 10 11 12 13 14 15
000
FTUS45 KABQ 251100
TAFLVS
TAF
KLVS 251128Z 2512/2612 25009KT P6SM SKC
     FM251600 25012KT P6SM FEW060
     FM251900 25015G25KT P6SM SCT070
     FM252200 24020G32KT P6SM BKN080
     FM260200 23012KT P6SM SCT100
     FM260600 22007KT P6SM SCT100=

USA.gov is the U.S. government's official web portal to all federal, state and local government web resources and services.